createdAt,value
2019-04-02T00:04:13.303Z,2.13
2019-04-02T00:09:18.898Z,2.53
2019-04-02T00:14:23.900Z,5.13
2019-04-02T00:19:29.159Z,4.93
2019-04-02T00:24:34.212Z,4.37
2019-04-02T00:29:39.202Z,2.27
2019-04-02T00:34:44.196Z,1.77
2019-04-02T00:39:49.373Z,2.07
2019-04-02T00:44:54.375Z,1.63
2019-04-02T00:49:59.367Z,4.77
2019-04-02T00:55:05.200Z,2.17
2019-04-02T01:00:10.939Z,3.53
2019-04-02T01:05:15.939Z,3.40
2019-04-02T01:10:23.254Z,2.60
2019-04-02T01:15:27.608Z,1.80
2019-04-02T01:20:32.604Z,3.90
2019-04-02T01:25:37.698Z,2.27
2019-04-02T01:30:42.982Z,2.00
2019-04-02T01:35:48.008Z,3.63
2019-04-02T01:40:53.052Z,3.10
2019-04-02T01:45:58.052Z,2.77
2019-04-02T01:51:05.235Z,3.43
2019-04-02T01:56:10.101Z,4.13
2019-04-02T02:01:15.144Z,2.23
2019-04-02T02:06:20.133Z,2.00
2019-04-02T02:11:25.143Z,3.63
2019-04-02T02:16:30.307Z,2.23
2019-04-02T02:21:35.276Z,5.63
2019-04-02T02:26:40.275Z,4.53
2019-04-02T02:31:45.331Z,2.47
2019-04-02T02:36:50.357Z,4.80
2019-04-02T02:42:12.212Z,3.13
2019-04-02T02:47:17.250Z,3.80
2019-04-02T02:52:22.344Z,2.97
2019-04-02T02:57:27.630Z,2.63
2019-04-02T03:02:32.651Z,5.70
2019-04-02T03:07:37.709Z,6.10
2019-04-02T03:12:42.689Z,5.97
2019-04-02T03:17:47.845Z,4.00
2019-04-02T03:22:52.840Z,4.77
2019-04-02T03:27:58.012Z,4.63
2019-04-02T03:33:03.078Z,4.33
2019-04-02T03:38:08.098Z,4.30
2019-04-02T03:43:13.095Z,7.30
2019-04-02T03:48:18.103Z,3.30
2019-04-02T03:53:23.975Z,3.73
2019-04-02T03:58:30.115Z,2.63
2019-04-02T04:03:35.125Z,6.33
2019-04-02T04:08:40.224Z,7.17
2019-04-02T04:13:46.282Z,6.57
2019-04-02T04:18:51.281Z,5.97
2019-04-02T04:23:56.727Z,3.67
2019-04-02T04:29:04.995Z,5.13
2019-04-02T04:34:10.781Z,3.83
2019-04-02T04:39:16.291Z,2.77
2019-04-02T04:44:24.496Z,6.70
2019-04-02T04:49:29.720Z,7.10
2019-04-02T04:54:35.220Z,5.10
2019-04-02T04:59:40.263Z,5.83
2019-04-02T05:04:53.117Z,8.57
2019-04-02T05:09:59.253Z,8.17
2019-04-02T05:15:05.274Z,6.50
2019-04-02T05:20:10.908Z,4.93
2019-04-02T05:25:16.280Z,8.53
2019-04-02T05:30:21.355Z,5.37
2019-04-02T05:35:26.328Z,10.37
2019-04-02T05:40:31.949Z,10.40
2019-04-02T05:45:36.940Z,13.03
2019-04-02T05:50:41.960Z,15.43
2019-04-02T05:55:46.967Z,15.07
2019-04-02T06:00:52.566Z,11.10
2019-04-02T06:05:59.739Z,7.87
2019-04-02T06:11:04.623Z,6.70
2019-04-02T06:16:09.656Z,13.13
2019-04-02T06:21:14.775Z,8.60
2019-04-02T06:26:19.791Z,11.27
2019-04-02T06:31:25.071Z,8.90
2019-04-02T06:36:30.870Z,8.60
2019-04-02T06:41:36.298Z,13.70
2019-04-02T06:46:41.322Z,14.50
2019-04-02T06:51:46.995Z,10.40
2019-04-02T06:56:52.183Z,10.57
2019-04-02T07:01:57.180Z,9.20
2019-04-02T07:07:02.295Z,14.43
2019-04-02T07:12:07.420Z,7.07
2019-04-02T07:17:12.424Z,13.60
2019-04-02T07:22:17.467Z,10.97
2019-04-02T07:27:22.810Z,8.80
2019-04-02T07:32:27.866Z,8.70
2019-04-02T07:37:32.848Z,9.53
2019-04-02T07:42:39.131Z,8.30
2019-04-02T07:47:45.248Z,8.93
2019-04-02T07:52:50.500Z,11.13
2019-04-02T07:57:55.495Z,11.03
2019-04-02T08:03:00.646Z,19.07
2019-04-02T08:08:05.701Z,17.83
2019-04-02T08:13:10.724Z,15.77
2019-04-02T08:18:15.787Z,18.73
2019-04-02T08:23:21.089Z,11.63
2019-04-02T08:28:27.229Z,14.57
2019-04-02T08:33:32.264Z,15.67
2019-04-02T08:38:39.454Z,19.10
2019-04-02T08:43:43.967Z,11.50
2019-04-02T08:48:49.198Z,20.27
2019-04-02T08:53:54.243Z,10.43
2019-04-02T08:58:59.275Z,22.57
2019-04-02T09:04:04.666Z,21.67
2019-04-02T09:09:10.070Z,9.37
2019-04-02T09:14:15.348Z,15.40
2019-04-02T09:19:20.826Z,20.97
2019-04-02T09:24:25.889Z,17.23
2019-04-02T09:29:32.755Z,17.83
2019-04-02T09:34:38.649Z,14.37
2019-04-02T09:39:43.700Z,15.43
2019-04-02T09:44:48.784Z,16.70
2019-04-02T09:49:53.773Z,15.17
2019-04-02T09:54:58.887Z,27.93
2019-04-02T10:00:09.896Z,28.90
2019-04-02T10:05:32.996Z,28.13
2019-04-02T10:10:32.331Z,15.80
2019-04-02T10:15:44.502Z,21.27
2019-04-02T10:20:51.794Z,25.73
2019-04-02T10:25:58.729Z,29.70
2019-04-02T10:31:06.375Z,39.30
2019-04-02T10:36:13.149Z,18.33
2019-04-02T10:41:19.796Z,20.80
2019-04-02T10:46:26.203Z,17.47
2019-04-02T10:51:32.739Z,16.27
2019-04-02T10:56:39.469Z,24.20
2019-04-02T11:01:47.508Z,18.23
2019-04-02T11:06:55.303Z,34.67
2019-04-02T11:12:01.905Z,29.50
2019-04-02T11:17:08.660Z,32.57
2019-04-02T11:22:15.269Z,19.77
2019-04-02T11:27:21.853Z,21.93
2019-04-02T11:32:27.132Z,16.50
2019-04-02T11:37:32.184Z,26.80
2019-04-02T11:42:39.051Z,26.87
2019-04-02T11:47:47.707Z,30.30
2019-04-02T11:52:57.176Z,29.47
2019-04-02T11:58:15.931Z,31.57
2019-04-02T12:03:10.368Z,42.10
2019-04-02T12:08:16.209Z,40.20
2019-04-02T12:13:22.228Z,28.03
2019-04-02T12:18:29.087Z,24.20
2019-04-02T12:23:34.126Z,23.90
2019-04-02T12:28:39.309Z,23.07
2019-04-02T12:33:44.338Z,26.53
2019-04-02T12:38:49.418Z,27.23
2019-04-02T12:43:54.472Z,30.10
2019-04-02T12:49:03.490Z,22.27
2019-04-02T12:54:06.122Z,28.60
2019-04-02T12:59:11.527Z,31.17
2019-04-02T13:04:17.729Z,27.83
2019-04-02T13:09:22.785Z,23.87
2019-04-02T13:14:29.094Z,34.13
2019-04-02T13:19:35.369Z,25.67
2019-04-02T13:24:40.501Z,28.47
2019-04-02T13:29:45.517Z,24.07
2019-04-02T13:34:50.606Z,24.90
2019-04-02T13:39:55.628Z,29.80
2019-04-02T13:45:00.717Z,29.20
2019-04-02T13:50:06.970Z,25.03
2019-04-02T13:55:12.181Z,25.27
2019-04-02T14:00:20.284Z,27.60
2019-04-02T14:05:25.465Z,26.27
2019-04-02T14:10:32.673Z,30.97
2019-04-02T14:15:40.219Z,29.20
2019-04-02T14:20:45.798Z,30.37
2019-04-02T14:26:05.603Z,32.47
2019-04-02T14:31:11.596Z,32.03
2019-04-02T14:36:16.680Z,31.70
2019-04-02T14:41:21.702Z,34.83
2019-04-02T14:46:33.194Z,34.93
2019-04-02T14:51:40.686Z,41.17
2019-04-02T14:56:46.083Z,39.00
2019-04-02T15:01:51.776Z,35.83
2019-04-02T15:06:56.828Z,35.63
2019-04-02T15:12:01.935Z,32.93
2019-04-02T15:17:07.044Z,35.23
2019-04-02T15:22:12.297Z,35.90
2019-04-02T15:27:17.425Z,34.70
2019-04-02T15:32:22.480Z,29.20
2019-04-02T15:37:27.529Z,27.87
2019-04-02T15:42:32.588Z,25.33
2019-04-02T15:47:37.741Z,22.70
2019-04-02T15:52:42.750Z,22.30
2019-04-02T15:57:48.054Z,18.00
2019-04-02T16:02:53.105Z,17.30
2019-04-02T16:07:58.165Z,16.60
2019-04-02T16:13:03.447Z,16.60
2019-04-02T16:18:10.556Z,15.33
2019-04-02T16:23:15.161Z,16.67
2019-04-02T16:28:20.245Z,14.87
2019-04-02T16:33:25.505Z,15.50
2019-04-02T16:38:30.558Z,14.73
2019-04-02T16:43:35.575Z,13.93
2019-04-02T16:48:40.974Z,15.03
2019-04-02T16:53:48.881Z,14.27
2019-04-02T16:58:58.079Z,13.90
2019-04-02T17:04:04.936Z,14.13
2019-04-02T17:09:10.274Z,14.33
2019-04-02T17:14:17.367Z,13.77
2019-04-02T17:19:23.946Z,13.53
2019-04-02T17:24:30.498Z,14.67
2019-04-02T17:29:35.840Z,14.73
2019-04-02T17:34:41.201Z,16.77
2019-04-02T17:39:49.970Z,15.67
2019-04-02T17:44:54.107Z,17.73
2019-04-02T17:50:00.863Z,16.10
2019-04-02T17:55:09.986Z,15.57
2019-04-02T18:00:15.685Z,19.40
2019-04-02T18:05:23.503Z,17.13
2019-04-02T18:10:29.628Z,15.57
2019-04-02T18:15:36.377Z,16.07
2019-04-02T18:20:43.033Z,15.00
2019-04-02T18:25:48.092Z,15.37
2019-04-02T18:30:53.245Z,14.23
2019-04-02T18:35:59.544Z,15.77
2019-04-02T18:41:04.627Z,13.93
2019-04-02T18:46:10.075Z,13.03
2019-04-02T18:51:15.197Z,14.93
2019-04-02T18:56:20.421Z,15.47
2019-04-02T19:01:27.772Z,18.60
2019-04-02T19:06:32.622Z,17.17
2019-04-02T19:11:37.671Z,17.30
2019-04-02T19:16:44.559Z,17.07
2019-04-02T19:21:49.624Z,18.40
2019-04-02T19:26:54.638Z,19.50
2019-04-02T19:32:00.041Z,22.70
2019-04-02T19:37:05.053Z,22.80
2019-04-02T19:42:10.066Z,18.60
2019-04-02T19:47:15.331Z,12.20
2019-04-02T19:52:20.382Z,9.37
2019-04-02T19:57:25.741Z,9.90
2019-04-02T20:02:30.885Z,8.57
2019-04-02T20:07:36.781Z,8.43
2019-04-02T20:12:42.151Z,7.67
2019-04-02T20:17:47.491Z,9.40
2019-04-02T20:22:52.853Z,9.33
2019-04-02T20:27:59.018Z,9.23
2019-04-02T20:33:04.803Z,8.87
2019-04-02T20:38:14.364Z,11.47
2019-04-02T20:43:19.423Z,12.67
2019-04-02T20:48:24.438Z,9.73
2019-04-02T20:53:29.849Z,10.07
2019-04-02T20:58:34.954Z,10.67
2019-04-02T21:03:49.215Z,11.70
2019-04-02T21:08:49.700Z,9.73
2019-04-02T21:13:55.860Z,9.73
2019-04-02T21:19:03.095Z,10.07
2019-04-02T21:24:08.137Z,10.67
2019-04-02T21:29:14.676Z,8.53
2019-04-02T21:34:20.809Z,10.63
2019-04-02T21:39:26.143Z,8.63
2019-04-02T21:44:31.333Z,8.97
2019-04-02T21:49:38.297Z,9.07
2019-04-02T21:54:44.499Z,8.00
2019-04-02T21:59:50.178Z,8.97
2019-04-02T22:04:55.554Z,7.77
2019-04-02T22:10:01.807Z,8.37
2019-04-02T22:15:07.963Z,8.03
2019-04-02T22:20:15.102Z,10.97
2019-04-02T22:25:20.454Z,7.87
2019-04-02T22:30:25.610Z,14.17
2019-04-02T22:35:33.264Z,10.70
2019-04-02T22:40:38.483Z,8.87
2019-04-02T22:45:43.587Z,10.03
2019-04-02T22:50:48.897Z,8.93
2019-04-02T22:55:53.956Z,10.13
2019-04-02T23:01:00.814Z,8.93
2019-04-02T23:06:05.768Z,10.73
2019-04-02T23:11:10.822Z,11.60
2019-04-02T23:16:25.450Z,10.10
2019-04-02T23:21:22.904Z,11.33
2019-04-02T23:26:27.959Z,12.53
2019-04-02T23:31:33.322Z,11.63
2019-04-02T23:36:39.406Z,11.77
2019-04-02T23:41:44.654Z,15.63
2019-04-02T23:46:49.782Z,12.57
2019-04-02T23:51:55.144Z,14.53
2019-04-02T23:57:02.853Z,14.03
